createdAt,value
2022-11-21T00:00:40.808Z,6.90
2022-11-21T00:03:07.599Z,6.90
2022-11-21T00:05:35.391Z,6.90
2022-11-21T00:08:02.784Z,6.90
2022-11-21T00:10:29.584Z,6.90
2022-11-21T00:12:56.584Z,6.90
2022-11-21T00:15:24.437Z,6.90
2022-11-21T00:17:52.574Z,6.90
2022-11-21T00:20:20.037Z,6.90
2022-11-21T00:22:46.771Z,6.90
2022-11-21T00:25:13.714Z,6.90
2022-11-21T00:27:40.860Z,6.90
2022-11-21T00:30:08.538Z,6.90
2022-11-21T00:32:35.616Z,6.90
2022-11-21T00:35:02.346Z,6.90
2022-11-21T00:37:29.741Z,6.90
2022-11-21T00:39:57.183Z,6.90
2022-11-21T00:42:24.585Z,6.90
2022-11-21T00:44:51.581Z,6.90
2022-11-21T00:47:19.113Z,6.90
2022-11-21T00:49:46.758Z,6.80
2022-11-21T00:52:14.407Z,6.80
2022-11-21T00:54:42.366Z,6.80
2022-11-21T00:57:09.802Z,6.80
2022-11-21T00:59:36.872Z,6.80
2022-11-21T01:02:05.399Z,6.80
2022-11-21T01:04:34.582Z,6.80
2022-11-21T01:07:01.779Z,6.80
2022-11-21T01:09:28.838Z,6.80
2022-11-21T01:11:56.602Z,6.80
2022-11-21T01:14:24.121Z,6.80
2022-11-21T01:16:52.817Z,6.80
2022-11-21T01:19:20.224Z,6.80
2022-11-21T01:21:47.619Z,6.80
2022-11-21T01:24:14.696Z,6.80
2022-11-21T01:26:42.046Z,6.80
2022-11-21T01:29:09.355Z,6.90
2022-11-21T01:31:36.353Z,6.90
2022-11-21T01:34:03.817Z,6.90
2022-11-21T01:36:31.845Z,6.90
2022-11-21T01:39:00.332Z,6.90
2022-11-21T01:41:31.298Z,6.90
2022-11-21T01:43:59.051Z,6.90
2022-11-21T01:46:26.778Z,6.80
2022-11-21T01:49:03.675Z,6.80
2022-11-21T01:51:41.449Z,6.80
2022-11-21T01:54:26.805Z,6.80
2022-11-21T01:56:59.436Z,6.70
2022-11-21T02:00:08.826Z,6.70
2022-11-21T02:02:41.560Z,6.70
2022-11-21T02:05:11.740Z,6.70
2022-11-21T02:07:40.622Z,6.70
2022-11-21T02:10:09.863Z,6.70
2022-11-21T02:12:56.113Z,6.60
2022-11-21T02:15:24.367Z,6.70
2022-11-21T02:17:51.614Z,6.70
2022-11-21T02:20:19.825Z,6.60
2022-11-21T02:23:04.441Z,6.60
2022-11-21T02:25:32.457Z,6.60
2022-11-21T02:28:03.755Z,6.50
2022-11-21T02:30:32.740Z,6.50
2022-11-21T02:32:59.815Z,6.50
2022-11-21T02:35:26.805Z,6.50
2022-11-21T02:38:16.984Z,6.50
2022-11-21T02:40:48.872Z,6.50
2022-11-21T02:43:20.019Z,6.50
2022-11-21T02:45:48.114Z,6.50
2022-11-21T02:48:15.283Z,6.50
2022-11-21T02:51:05.547Z,6.50
2022-11-21T02:53:32.928Z,6.60
2022-11-21T02:56:00.424Z,6.60
2022-11-21T02:58:28.112Z,6.60
2022-11-21T03:00:55.946Z,6.60
2022-11-21T03:03:23.142Z,6.60
2022-11-21T03:05:49.881Z,6.60
2022-11-21T03:08:18.339Z,6.60
2022-11-21T03:10:45.481Z,6.60
2022-11-21T03:13:13.049Z,6.50
2022-11-21T03:15:40.597Z,6.50
2022-11-21T03:18:07.729Z,6.50
2022-11-21T03:20:34.867Z,6.50
2022-11-21T03:23:01.725Z,6.50
2022-11-21T03:25:29.261Z,6.50
2022-11-21T03:27:56.072Z,6.40
2022-11-21T03:30:23.659Z,6.40
2022-11-21T03:32:50.905Z,6.30
2022-11-21T03:35:18.713Z,6.20
2022-11-21T03:37:47.350Z,6.20
2022-11-21T03:40:14.598Z,6.20
2022-11-21T03:42:41.965Z,6.30
2022-11-21T03:45:10.153Z,6.20
2022-11-21T03:47:37.107Z,6.20
2022-11-21T03:50:04.806Z,6.30
2022-11-21T03:52:32.244Z,6.20
2022-11-21T03:54:59.192Z,6.30
2022-11-21T03:57:27.826Z,6.20
2022-11-21T03:59:54.834Z,6.20
2022-11-21T04:02:22.078Z,6.10
2022-11-21T04:04:48.734Z,6.10
2022-11-21T04:07:16.545Z,6.10
2022-11-21T04:09:43.720Z,6.00
2022-11-21T04:12:12.188Z,6.00
2022-11-21T04:14:39.544Z,5.90
2022-11-21T04:17:06.739Z,5.90
2022-11-21T04:19:34.060Z,5.90
2022-11-21T04:22:01.456Z,5.90
2022-11-21T04:24:28.301Z,5.80
2022-11-21T04:26:55.929Z,5.80
2022-11-21T04:29:22.965Z,5.80
2022-11-21T04:31:50.204Z,5.80
2022-11-21T04:34:17.282Z,5.70
2022-11-21T04:36:46.366Z,5.70
2022-11-21T04:39:13.429Z,5.70
2022-11-21T04:41:40.177Z,5.70
2022-11-21T04:44:07.889Z,5.70
2022-11-21T04:46:34.569Z,5.70
2022-11-21T04:49:01.303Z,5.70
2022-11-21T04:51:28.754Z,5.70
2022-11-21T04:53:55.999Z,5.70
2022-11-21T04:56:23.021Z,5.70
2022-11-21T04:58:53.890Z,5.70
2022-11-21T05:01:20.850Z,5.60
2022-11-21T05:03:47.585Z,5.60
2022-11-21T05:06:15.515Z,5.60
2022-11-21T05:08:44.835Z,5.60
2022-11-21T05:11:33.612Z,5.60
2022-11-21T05:14:00.718Z,5.60
2022-11-21T05:16:28.328Z,5.60
2022-11-21T05:18:55.370Z,5.60
2022-11-21T05:21:22.975Z,5.60
2022-11-21T05:23:50.122Z,5.60
2022-11-21T05:26:17.758Z,5.60
2022-11-21T05:28:44.769Z,5.70
2022-11-21T05:31:11.821Z,5.70
2022-11-21T05:33:38.498Z,5.70
2022-11-21T05:36:06.214Z,5.80
2022-11-21T05:38:33.306Z,5.80
2022-11-21T05:41:00.443Z,5.80
2022-11-21T05:44:50.873Z,5.80
2022-11-21T05:47:20.181Z,5.90
2022-11-21T05:49:47.633Z,5.80
2022-11-21T05:52:15.550Z,5.90
2022-11-21T05:54:46.093Z,5.80
2022-11-21T05:57:14.311Z,5.90
2022-11-21T05:59:41.360Z,5.90
2022-11-21T06:02:27.042Z,5.90
2022-11-21T06:04:54.689Z,5.90
2022-11-21T06:07:23.118Z,5.90
2022-11-21T06:09:50.577Z,5.80
2022-11-21T06:12:21.499Z,5.80
2022-11-21T06:14:52.018Z,5.80
2022-11-21T06:17:19.182Z,5.80
2022-11-21T06:19:46.513Z,5.80
2022-11-21T06:22:13.983Z,5.80
2022-11-21T06:24:41.482Z,5.80
2022-11-21T06:27:08.500Z,5.80
2022-11-21T06:29:36.611Z,5.80
2022-11-21T06:32:04.169Z,5.80
2022-11-21T06:34:31.164Z,5.80
2022-11-21T06:36:58.296Z,5.80
2022-11-21T06:39:25.361Z,5.80
2022-11-21T06:41:52.441Z,5.80
2022-11-21T06:44:19.176Z,5.80
2022-11-21T06:46:51.020Z,5.80
2022-11-21T06:49:22.079Z,5.80
2022-11-21T06:51:48.909Z,5.70
2022-11-21T06:54:17.058Z,5.70
2022-11-21T06:56:46.554Z,5.70
2022-11-21T06:59:13.912Z,5.70
2022-11-21T07:01:41.034Z,5.70
2022-11-21T07:04:08.313Z,5.60
2022-11-21T07:06:35.464Z,5.60
2022-11-21T07:09:31.478Z,5.60
2022-11-21T07:11:50.106Z,5.60
2022-11-21T07:14:18.375Z,5.60
2022-11-21T07:16:45.789Z,5.60
2022-11-21T07:19:13.082Z,5.70
2022-11-21T07:21:40.547Z,5.60
2022-11-21T07:24:08.477Z,5.60
2022-11-21T07:26:35.584Z,5.60
2022-11-21T07:29:02.930Z,5.50
2022-11-21T07:31:30.074Z,5.60
2022-11-21T07:33:56.719Z,5.50
2022-11-21T07:36:24.189Z,5.50
2022-11-21T07:38:51.918Z,5.50
2022-11-21T07:41:19.246Z,5.50
2022-11-21T07:43:45.920Z,5.50
2022-11-21T07:46:13.078Z,5.50
2022-11-21T07:48:39.917Z,5.60
2022-11-21T07:51:07.392Z,5.60
2022-11-21T07:53:34.749Z,5.70
2022-11-21T07:56:02.192Z,5.70
2022-11-21T07:58:29.705Z,5.80
2022-11-21T08:00:57.160Z,5.90
2022-11-21T08:03:25.229Z,5.90
2022-11-21T08:05:52.747Z,6.00
2022-11-21T08:08:19.825Z,6.00
2022-11-21T08:10:47.269Z,6.00
2022-11-21T08:13:14.057Z,6.10
2022-11-21T08:15:41.199Z,6.10
2022-11-21T08:18:12.037Z,6.10
2022-11-21T08:20:39.280Z,6.20
2022-11-21T08:23:06.588Z,6.30
2022-11-21T08:25:34.361Z,6.40
2022-11-21T08:28:02.873Z,6.40
2022-11-21T08:30:30.183Z,6.50
2022-11-21T08:33:00.559Z,6.60
2022-11-21T08:35:27.725Z,6.60
2022-11-21T08:38:01.211Z,6.60
2022-11-21T08:40:30.192Z,6.60
2022-11-21T08:43:01.031Z,6.70
2022-11-21T08:45:28.222Z,6.70
2022-11-21T08:47:55.037Z,6.70
2022-11-21T08:50:22.792Z,6.80
2022-11-21T08:52:49.929Z,6.80
2022-11-21T08:55:16.888Z,6.90
2022-11-21T08:57:44.094Z,6.90
2022-11-21T09:00:13.221Z,6.90
2022-11-21T09:02:40.326Z,7.00
2022-11-21T09:05:10.055Z,7.00
2022-11-21T09:07:37.491Z,7.00
2022-11-21T09:10:07.430Z,7.00
2022-11-21T09:12:34.451Z,7.00
2022-11-21T09:15:21.063Z,7.10
2022-11-21T09:18:03.420Z,7.10
2022-11-21T09:20:34.758Z,7.20
2022-11-21T09:23:09.855Z,7.30
2022-11-21T09:25:37.160Z,7.30
2022-11-21T09:28:04.527Z,7.40
2022-11-21T09:30:31.640Z,7.40
2022-11-21T09:33:02.685Z,7.40
2022-11-21T09:35:29.522Z,7.40
2022-11-21T09:37:56.906Z,7.40
2022-11-21T09:40:23.693Z,7.30
2022-11-21T09:43:03.112Z,7.40
2022-11-21T09:45:50.953Z,7.30
2022-11-21T09:48:22.685Z,7.30
2022-11-21T09:50:55.241Z,7.30
2022-11-21T09:53:36.587Z,7.40
2022-11-21T09:56:12.926Z,7.40
2022-11-21T09:58:44.313Z,7.50
2022-11-21T10:01:14.993Z,7.40
2022-11-21T10:03:47.661Z,7.50
2022-11-21T10:06:27.462Z,7.50
2022-11-21T10:09:13.179Z,7.60
2022-11-21T10:12:37.582Z,7.70
2022-11-21T10:15:32.325Z,7.70
2022-11-21T10:18:23.578Z,7.60
2022-11-21T10:20:53.129Z,7.60
2022-11-21T10:23:53.275Z,7.60
2022-11-21T10:26:52.088Z,7.60
2022-11-21T10:29:37.358Z,7.50
2022-11-21T10:32:16.561Z,7.60
2022-11-21T10:34:44.293Z,7.60
2022-11-21T10:37:27.798Z,7.60
2022-11-21T10:39:54.848Z,7.60
2022-11-21T10:42:38.056Z,7.50
2022-11-21T10:45:17.114Z,7.50
2022-11-21T10:47:48.155Z,7.40
2022-11-21T10:50:31.945Z,7.40
2022-11-21T10:53:25.855Z,7.40
2022-11-21T10:56:00.592Z,7.40
2022-11-21T10:58:44.668Z,7.40
2022-11-21T11:01:32.155Z,7.50
2022-11-21T11:04:29.166Z,7.50
2022-11-21T11:06:56.920Z,7.50
2022-11-21T11:09:28.393Z,7.50
2022-11-21T11:12:21.170Z,7.50
2022-11-21T11:14:54.925Z,7.50
2022-11-21T11:17:32.818Z,7.50
2022-11-21T11:20:05.714Z,7.50
2022-11-21T11:22:36.518Z,7.50
2022-11-21T11:25:05.404Z,7.50
2022-11-21T11:27:59.044Z,7.50
2022-11-21T11:30:27.651Z,7.60
2022-11-21T11:32:54.371Z,7.60
2022-11-21T11:35:22.778Z,7.70
2022-11-21T11:37:56.603Z,7.70
2022-11-21T11:40:41.709Z,7.70
2022-11-21T11:43:42.052Z,7.80
2022-11-21T11:46:37.358Z,7.80
2022-11-21T11:49:21.980Z,7.90
2022-11-21T11:51:54.566Z,7.90
2022-11-21T11:54:27.199Z,7.90
2022-11-21T11:56:54.252Z,7.80
2022-11-21T11:59:29.416Z,7.80
2022-11-21T12:01:59.640Z,7.80
2022-11-21T12:04:29.946Z,7.70
2022-11-21T12:10:04.985Z,7.60
2022-11-21T12:12:40.227Z,7.50
2022-11-21T12:15:31.476Z,7.50
2022-11-21T12:18:10.040Z,7.50
2022-11-21T12:20:42.573Z,7.50
2022-11-21T12:23:10.322Z,7.50
2022-11-21T12:25:49.900Z,7.50
2022-11-21T12:28:26.565Z,7.50
2022-11-21T12:30:55.894Z,7.50
2022-11-21T12:33:23.136Z,7.60
2022-11-21T12:36:17.869Z,7.60
2022-11-21T12:39:26.945Z,7.60
2022-11-21T12:42:26.276Z,7.60
2022-11-21T12:44:56.940Z,7.60
2022-11-21T12:47:29.645Z,7.50
2022-11-21T12:50:41.177Z,7.50
2022-11-21T12:53:36.352Z,7.50
2022-11-21T12:56:07.781Z,7.50
2022-11-21T12:58:39.805Z,7.60
2022-11-21T13:01:25.183Z,7.60
2022-11-21T13:04:04.467Z,7.60
2022-11-21T13:06:42.127Z,7.60
2022-11-21T13:09:13.694Z,7.60
2022-11-21T13:11:59.483Z,7.60
2022-11-21T13:14:28.709Z,7.70
2022-11-21T13:17:14.417Z,7.80
2022-11-21T13:19:49.264Z,7.80
2022-11-21T13:22:38.367Z,7.80
2022-11-21T13:25:40.210Z,7.80
2022-11-21T13:28:19.283Z,7.80
2022-11-21T13:30:52.764Z,7.80
2022-11-21T13:33:34.717Z,7.80
2022-11-21T13:43:16.578Z,7.90
2022-11-21T13:45:50.215Z,7.90
2022-11-21T13:48:37.056Z,7.90
2022-11-21T13:51:41.320Z,7.90
2022-11-21T13:54:47.296Z,7.90
2022-11-21T13:57:46.148Z,7.90
2022-11-21T14:00:16.962Z,8.00
2022-11-21T14:03:00.098Z,7.90
2022-11-21T14:05:41.999Z,8.00
2022-11-21T14:08:21.908Z,8.00
2022-11-21T14:10:50.523Z,8.00
2022-11-21T14:13:28.341Z,8.00
2022-11-21T14:16:16.877Z,8.00
2022-11-21T14:18:44.992Z,8.00
2022-11-21T14:21:20.063Z,8.00
2022-11-21T14:23:47.304Z,8.00
2022-11-21T14:26:19.919Z,8.00
2022-11-21T14:28:49.371Z,8.00
2022-11-21T14:31:16.163Z,8.00
2022-11-21T14:33:43.386Z,8.00
2022-11-21T14:36:21.602Z,8.00
2022-11-21T14:39:13.961Z,8.00
2022-11-21T14:41:40.355Z,8.00
2022-11-21T14:44:15.224Z,7.90
2022-11-21T14:46:42.422Z,7.90
2022-11-21T14:49:23.228Z,7.80
2022-11-21T14:51:54.283Z,7.80
2022-11-21T14:54:32.173Z,7.80
2022-11-21T14:57:01.000Z,7.80
2022-11-21T14:59:42.059Z,7.80
2022-11-21T15:02:14.429Z,7.80
2022-11-21T15:04:42.091Z,7.70
2022-11-21T15:07:26.927Z,7.70
2022-11-21T15:12:48.393Z,7.70
2022-11-21T15:15:35.315Z,7.70
2022-11-21T15:20:52.313Z,7.70
2022-11-21T15:23:32.088Z,7.70
2022-11-21T15:26:01.420Z,7.70
2022-11-21T15:28:29.482Z,7.70
2022-11-21T15:31:16.129Z,7.70
2022-11-21T15:34:27.319Z,7.60
2022-11-21T15:36:47.014Z,7.60
2022-11-21T15:39:19.465Z,7.60
2022-11-21T15:41:46.529Z,7.50
2022-11-21T15:44:13.404Z,7.50
2022-11-21T15:46:43.765Z,7.50
2022-11-21T15:49:32.556Z,7.50
2022-11-21T15:54:47.298Z,7.30
2022-11-21T15:57:13.007Z,7.70
2022-11-21T15:57:14.434Z,7.40
2022-11-21T15:57:16.677Z,7.30
2022-11-21T15:59:45.122Z,7.30
2022-11-21T16:02:13.763Z,7.20
2022-11-21T16:04:42.258Z,7.20
2022-11-21T16:07:11.392Z,7.20
2022-11-21T16:09:38.785Z,7.20
2022-11-21T16:12:06.964Z,7.20
2022-11-21T16:14:34.061Z,7.20
2022-11-21T16:20:10.208Z,7.10
2022-11-21T16:22:39.445Z,7.10
2022-11-21T16:25:10.782Z,7.10
2022-11-21T16:27:37.827Z,7.00
2022-11-21T16:30:06.948Z,7.00
2022-11-21T16:32:34.698Z,7.00
2022-11-21T16:35:01.792Z,6.90
2022-11-21T16:37:28.532Z,6.90
2022-11-21T16:39:55.553Z,6.90
2022-11-21T16:42:22.936Z,6.90
2022-11-21T16:44:50.348Z,6.90
2022-11-21T16:47:17.338Z,6.90
2022-11-21T16:49:48.489Z,6.80
2022-11-21T16:52:15.877Z,6.80
2022-11-21T16:54:43.215Z,6.80
2022-11-21T16:57:10.316Z,6.80
2022-11-21T16:59:37.628Z,6.80
2022-11-21T17:02:04.931Z,6.80
2022-11-21T17:04:32.453Z,6.80
2022-11-21T17:07:01.200Z,6.80
2022-11-21T17:09:28.406Z,6.80
2022-11-21T17:11:58.035Z,6.80
2022-11-21T17:14:25.530Z,6.80
2022-11-21T17:16:52.639Z,6.80
2022-11-21T17:19:19.769Z,6.80
2022-11-21T17:21:47.195Z,6.80
2022-11-21T17:24:14.546Z,6.80
2022-11-21T17:26:41.994Z,6.80
2022-11-21T17:29:09.785Z,6.80
2022-11-21T17:31:36.998Z,6.80
2022-11-21T17:34:03.704Z,6.80
2022-11-21T17:36:30.758Z,6.80
2022-11-21T17:38:58.408Z,6.80
2022-11-21T17:41:25.456Z,6.80
2022-11-21T17:43:56.703Z,6.80
2022-11-21T17:46:25.336Z,6.80
2022-11-21T17:48:55.603Z,6.80
2022-11-21T17:51:25.798Z,6.80
2022-11-21T17:53:53.118Z,6.80
2022-11-21T17:56:21.498Z,6.70
2022-11-21T17:58:48.634Z,6.80
2022-11-21T18:01:20.942Z,6.70
2022-11-21T18:03:57.513Z,6.70
2022-11-21T18:06:29.457Z,6.70
2022-11-21T18:08:59.531Z,6.70
2022-11-21T18:11:38.897Z,6.60
2022-11-21T18:14:06.541Z,6.60
2022-11-21T18:16:33.799Z,6.60
2022-11-21T18:19:00.881Z,6.60
2022-11-21T18:21:29.825Z,6.60
2022-11-21T18:23:57.031Z,6.60
2022-11-21T18:26:47.560Z,6.60
2022-11-21T18:32:03.104Z,6.50
2022-11-21T18:34:30.346Z,6.50
2022-11-21T18:36:57.434Z,6.50
2022-11-21T18:39:26.758Z,6.50
2022-11-21T18:41:57.909Z,6.50
2022-11-21T18:44:24.952Z,6.40
2022-11-21T18:46:52.285Z,6.40
2022-11-21T18:49:19.763Z,6.40
2022-11-21T18:51:48.546Z,6.40
2022-11-21T18:54:15.807Z,6.50
2022-11-21T18:56:42.892Z,6.50
2022-11-21T18:59:10.279Z,6.50
2022-11-21T19:01:40.002Z,6.50
2022-11-21T19:04:07.807Z,6.50
2022-11-21T19:06:35.425Z,6.50
2022-11-21T19:09:03.911Z,6.50
2022-11-21T19:11:31.086Z,6.50
2022-11-21T19:13:59.221Z,6.40
2022-11-21T19:16:27.021Z,6.50
2022-11-21T19:19:32.636Z,6.40
2022-11-21T19:21:44.874Z,6.40
2022-11-21T19:24:16.466Z,6.50
2022-11-21T19:26:43.619Z,6.50
2022-11-21T19:29:10.811Z,6.50
2022-11-21T19:31:44.687Z,6.50
2022-11-21T19:34:13.659Z,6.50
2022-11-21T19:36:40.869Z,6.50
2022-11-21T19:39:08.906Z,6.60
2022-11-21T19:41:35.956Z,6.60
2022-11-21T19:44:02.961Z,6.60
2022-11-21T19:46:31.809Z,6.60
2022-11-21T19:49:00.007Z,6.60
2022-11-21T19:51:34.846Z,6.60
2022-11-21T19:54:02.891Z,6.60
2022-11-21T19:56:30.344Z,6.60
2022-11-21T19:58:57.229Z,6.60
2022-11-21T20:01:31.074Z,6.60
2022-11-21T20:03:59.661Z,6.60
2022-11-21T20:06:31.593Z,6.60
2022-11-21T20:09:03.487Z,6.60
2022-11-21T20:11:30.830Z,6.60
2022-11-21T20:13:58.398Z,6.60
2022-11-21T20:16:27.218Z,6.60
2022-11-21T20:18:55.927Z,6.60
2022-11-21T20:21:22.958Z,6.60
2022-11-21T20:23:50.604Z,6.60
2022-11-21T20:26:18.466Z,6.60
2022-11-21T20:28:45.723Z,6.60
2022-11-21T20:31:14.309Z,6.60
2022-11-21T20:34:04.294Z,6.60
2022-11-21T20:36:32.196Z,6.60
2022-11-21T20:39:01.047Z,6.60
2022-11-21T20:41:30.305Z,6.60
2022-11-21T20:46:49.192Z,6.60
2022-11-21T20:49:16.285Z,6.60
2022-11-21T20:54:33.606Z,6.60
2022-11-21T20:57:00.306Z,6.60
2022-11-21T20:59:28.089Z,6.60
2022-11-21T21:01:55.516Z,6.60
2022-11-21T21:04:23.013Z,6.60
2022-11-21T21:06:50.028Z,6.60
2022-11-21T21:09:17.558Z,6.60
2022-11-21T21:11:53.389Z,6.60
2022-11-21T21:14:21.520Z,6.60
2022-11-21T21:16:48.922Z,6.60
2022-11-21T21:19:16.278Z,6.60
2022-11-21T21:21:43.625Z,6.70
2022-11-21T21:24:11.186Z,6.60
2022-11-21T21:26:45.573Z,6.70
2022-11-21T21:29:16.869Z,6.70
2022-11-21T21:31:49.981Z,6.80
2022-11-21T21:34:18.145Z,6.80
2022-11-21T21:36:45.312Z,6.80
2022-11-21T21:39:12.685Z,6.80
2022-11-21T21:41:41.450Z,6.90
2022-11-21T21:44:09.076Z,6.80
2022-11-21T21:46:38.959Z,6.90
2022-11-21T21:49:05.948Z,6.90
2022-11-21T21:51:33.620Z,6.90
2022-11-21T21:54:00.734Z,6.90
2022-11-21T21:56:28.324Z,6.90
2022-11-21T21:58:58.775Z,6.90
2022-11-21T22:01:29.904Z,7.00
2022-11-21T22:04:01.146Z,6.90
2022-11-21T22:06:28.034Z,7.00
2022-11-21T22:08:55.419Z,7.00
2022-11-21T22:11:27.237Z,7.00
2022-11-21T22:13:55.477Z,7.00
2022-11-21T22:16:22.717Z,7.00
2022-11-21T22:18:49.764Z,7.00
2022-11-21T22:21:17.625Z,7.00
2022-11-21T22:24:09.343Z,7.00
2022-11-21T22:26:31.410Z,7.00
2022-11-21T22:28:58.079Z,7.00
2022-11-21T22:31:25.115Z,7.00
2022-11-21T22:33:52.173Z,7.00
2022-11-21T22:36:19.169Z,7.10
2022-11-21T22:38:46.280Z,7.10
2022-11-21T22:41:15.397Z,7.10
2022-11-21T22:43:42.324Z,7.10
2022-11-21T22:46:10.979Z,7.10
2022-11-21T22:48:37.800Z,7.00
2022-11-21T22:51:05.262Z,7.00
2022-11-21T22:53:35.737Z,7.10
2022-11-21T22:56:08.290Z,7.10
2022-11-21T22:58:36.422Z,7.10
2022-11-21T23:01:08.219Z,7.10
2022-11-21T23:03:35.422Z,7.10
2022-11-21T23:06:06.046Z,7.10
2022-11-21T23:08:32.914Z,7.10
2022-11-21T23:11:29.605Z,7.10
2022-11-21T23:13:56.944Z,7.10
2022-11-21T23:16:24.283Z,7.10
2022-11-21T23:18:55.007Z,7.10
2022-11-21T23:21:22.122Z,7.10
2022-11-21T23:23:49.048Z,7.10
2022-11-21T23:26:16.126Z,7.10
2022-11-21T23:28:45.720Z,7.10
2022-11-21T23:31:12.454Z,7.10
2022-11-21T23:33:39.186Z,7.10
2022-11-21T23:36:06.026Z,7.00
2022-11-21T23:38:33.049Z,7.00
2022-11-21T23:40:59.786Z,7.00
2022-11-21T23:43:27.241Z,7.00
2022-11-21T23:45:54.238Z,7.00
2022-11-21T23:48:21.295Z,7.00
2022-11-21T23:50:50.779Z,7.00
2022-11-21T23:53:18.298Z,6.90
2022-11-21T23:55:45.747Z,6.90
2022-11-21T23:58:12.783Z,6.90
